createdAt,value
2022-10-19T00:00:16.953Z,35.20
2022-10-19T00:00:49.198Z,38.75
2022-10-19T00:01:22.457Z,33.15
2022-10-19T00:01:54.776Z,30.10
2022-10-19T00:02:27.284Z,35.90
2022-10-19T00:03:00.166Z,31.83
2022-10-19T00:03:33.396Z,36.80
2022-10-19T00:04:08.652Z,35.15
2022-10-19T00:04:41.319Z,32.80
2022-10-19T00:05:13.624Z,35.20
2022-10-19T00:05:46.016Z,34.75
2022-10-19T00:06:18.378Z,33.50
2022-10-19T00:06:50.695Z,37.60
2022-10-19T00:07:22.932Z,34.90
2022-10-19T00:07:55.905Z,31.60
2022-10-19T00:08:28.256Z,34.03
2022-10-19T00:09:14.533Z,35.33
2022-10-19T00:09:46.940Z,30.77
2022-10-19T00:10:19.216Z,31.58
2022-10-19T00:10:51.671Z,34.03
2022-10-19T00:11:24.329Z,36.90
2022-10-19T00:11:56.629Z,34.03
2022-10-19T00:12:28.906Z,30.17
2022-10-19T00:13:01.212Z,32.05
2022-10-19T00:13:33.850Z,46.92
2022-10-19T00:14:06.784Z,33.63
2022-10-19T00:14:39.082Z,34.75
2022-10-19T00:15:11.413Z,34.42
2022-10-19T00:15:45.365Z,33.00
2022-10-19T00:16:18.038Z,37.08
2022-10-19T00:16:51.797Z,41.85
2022-10-19T00:17:24.019Z,30.42
2022-10-19T00:17:56.265Z,29.90
2022-10-19T00:18:28.677Z,36.33
2022-10-19T00:19:02.477Z,33.17
2022-10-19T00:19:34.810Z,33.72
2022-10-19T00:20:07.458Z,32.90
2022-10-19T00:20:39.829Z,34.10
2022-10-19T00:21:16.290Z,33.17
2022-10-19T00:21:48.631Z,37.42
2022-10-19T00:22:20.932Z,34.15
2022-10-19T00:22:53.234Z,34.55
2022-10-19T00:23:25.488Z,36.97
2022-10-19T00:23:57.914Z,31.70
2022-10-19T00:24:30.245Z,33.38
2022-10-19T00:25:02.636Z,34.58
2022-10-19T00:25:34.996Z,34.17
2022-10-19T00:26:07.337Z,32.60
2022-10-19T00:26:40.023Z,34.58
2022-10-19T00:27:12.525Z,33.85
2022-10-19T00:27:44.896Z,37.05
2022-10-19T00:28:17.181Z,36.10
2022-10-19T00:28:49.653Z,35.72
2022-10-19T00:29:22.268Z,32.10
2022-10-19T00:29:54.703Z,32.40
2022-10-19T00:30:27.027Z,35.50
2022-10-19T00:31:03.706Z,34.47
2022-10-19T00:31:36.097Z,35.45
2022-10-19T00:32:08.396Z,37.55
2022-10-19T00:32:40.665Z,38.40
2022-10-19T00:33:12.966Z,34.75
2022-10-19T00:33:47.092Z,37.70
2022-10-19T00:34:19.380Z,33.67
2022-10-19T00:34:51.970Z,33.78
2022-10-19T00:35:24.239Z,32.83
2022-10-19T00:35:56.524Z,36.03
2022-10-19T00:36:32.686Z,31.00
2022-10-19T00:37:05.055Z,31.60
2022-10-19T00:37:37.460Z,34.00
2022-10-19T00:38:09.720Z,33.13
2022-10-19T00:38:42.378Z,40.55
2022-10-19T00:39:15.821Z,31.98
2022-10-19T00:39:48.185Z,32.42
2022-10-19T00:40:20.623Z,31.85
2022-10-19T00:40:53.001Z,36.42
2022-10-19T00:41:26.682Z,40.15
2022-10-19T00:41:58.930Z,32.20
2022-10-19T00:42:31.369Z,42.13
2022-10-19T00:43:03.922Z,36.75
2022-10-19T00:43:52.550Z,37.67
2022-10-19T00:44:31.050Z,36.28
2022-10-19T00:45:06.216Z,37.10
2022-10-19T00:45:38.567Z,40.20
2022-10-19T00:46:13.720Z,37.00
2022-10-19T00:46:49.073Z,35.47
2022-10-19T00:47:24.002Z,36.55
2022-10-19T00:47:56.389Z,41.85
2022-10-19T00:48:32.040Z,36.88
2022-10-19T00:49:10.830Z,39.42
2022-10-19T00:49:45.166Z,40.28
2022-10-19T00:50:17.712Z,37.35
2022-10-19T00:50:50.992Z,31.58
2022-10-19T00:51:24.272Z,33.97
2022-10-19T00:51:58.557Z,39.92
2022-10-19T00:52:30.933Z,41.47
2022-10-19T00:53:03.592Z,40.92
2022-10-19T00:53:36.059Z,33.28
2022-10-19T00:54:08.827Z,35.63
2022-10-19T00:54:42.352Z,36.78
2022-10-19T00:55:14.855Z,36.15
2022-10-19T00:55:47.463Z,39.25
2022-10-19T00:56:19.810Z,38.20
2022-10-19T00:56:53.769Z,37.17
2022-10-19T00:57:27.765Z,37.65
2022-10-19T00:58:00.787Z,36.60
2022-10-19T00:58:33.570Z,35.05
2022-10-19T00:59:06.166Z,39.88
2022-10-19T00:59:39.422Z,36.53
2022-10-19T01:00:12.080Z,38.70
2022-10-19T01:00:44.642Z,37.15
2022-10-19T01:01:19.380Z,39.55
2022-10-19T01:01:52.246Z,36.40
2022-10-19T01:02:24.561Z,38.53
2022-10-19T01:02:57.588Z,42.78
2022-10-19T01:03:29.937Z,40.05
2022-10-19T01:04:03.228Z,35.50
2022-10-19T01:04:37.233Z,37.00
2022-10-19T01:05:09.667Z,37.33
2022-10-19T01:05:42.629Z,40.63
2022-10-19T01:06:17.106Z,39.22
2022-10-19T01:07:21.914Z,36.20
2022-10-19T01:07:54.474Z,35.17
2022-10-19T01:08:27.405Z,38.33
2022-10-19T01:08:59.652Z,39.22
2022-10-19T01:09:31.970Z,35.40
2022-10-19T01:10:04.612Z,37.30
2022-10-19T01:10:51.911Z,37.35
2022-10-19T01:11:39.157Z,41.55
2022-10-19T01:12:21.991Z,37.58
2022-10-19T01:12:57.208Z,37.72
2022-10-19T01:13:29.446Z,36.17
2022-10-19T01:14:20.476Z,36.60
2022-10-19T01:14:52.771Z,37.08
2022-10-19T01:15:57.491Z,38.72
2022-10-19T01:16:50.098Z,34.80
2022-10-19T01:17:25.212Z,32.17
2022-10-19T01:18:15.937Z,36.05
2022-10-19T01:18:58.529Z,32.75
2022-10-19T01:19:49.444Z,37.58
2022-10-19T01:20:40.375Z,37.17
2022-10-19T01:21:12.604Z,33.92
2022-10-19T01:21:44.907Z,33.95
2022-10-19T01:22:17.243Z,37.85
2022-10-19T01:23:06.030Z,36.60
2022-10-19T01:23:50.144Z,38.85
2022-10-19T01:24:26.493Z,39.88
2022-10-19T01:25:04.674Z,37.33
2022-10-19T01:25:42.766Z,32.53
2022-10-19T01:26:25.319Z,36.58
2022-10-19T01:27:12.544Z,41.20
2022-10-19T01:27:44.896Z,36.70
2022-10-19T01:28:20.176Z,38.60
2022-10-19T01:28:52.499Z,33.50
2022-10-19T01:29:36.902Z,37.60
2022-10-19T01:30:14.518Z,35.63
2022-10-19T01:30:59.048Z,35.38
2022-10-19T01:31:38.188Z,33.92
2022-10-19T01:32:16.221Z,40.03
2022-10-19T01:33:06.922Z,33.15
2022-10-19T01:33:54.233Z,33.65
2022-10-19T01:34:32.530Z,36.25
2022-10-19T01:35:13.742Z,35.35
2022-10-19T01:35:56.588Z,39.13
2022-10-19T01:36:31.822Z,42.78
2022-10-19T01:37:17.983Z,38.00
2022-10-19T01:38:05.244Z,38.38
2022-10-19T01:39:04.020Z,34.33
2022-10-19T01:39:36.301Z,33.35
2022-10-19T01:40:14.445Z,35.95
2022-10-19T01:40:55.807Z,35.70
2022-10-19T01:41:30.604Z,35.03
2022-10-19T01:42:14.761Z,38.25
2022-10-19T01:42:52.480Z,36.65
2022-10-19T01:43:43.268Z,35.70
2022-10-19T01:44:21.423Z,38.60
2022-10-19T01:44:55.796Z,33.95
2022-10-19T01:45:36.820Z,34.13
2022-10-19T01:46:41.471Z,38.17
2022-10-19T01:47:36.891Z,31.85
2022-10-19T01:48:12.528Z,32.65
2022-10-19T01:48:50.879Z,36.40
2022-10-19T01:49:49.250Z,37.40
2022-10-19T01:50:27.057Z,39.08
2022-10-19T01:51:02.479Z,36.53
2022-10-19T01:51:35.979Z,38.08
2022-10-19T01:52:10.043Z,35.15
2022-10-19T01:52:43.522Z,37.03
2022-10-19T01:53:17.488Z,36.50
2022-10-19T01:53:52.160Z,32.45
2022-10-19T01:54:26.925Z,40.60
2022-10-19T01:55:00.676Z,35.33
2022-10-19T01:55:33.877Z,35.90
2022-10-19T01:56:07.094Z,36.75
2022-10-19T01:56:42.336Z,37.10
2022-10-19T01:57:17.301Z,36.60
2022-10-19T01:57:52.821Z,37.63
2022-10-19T01:58:29.790Z,35.75
2022-10-19T01:59:04.242Z,39.25
2022-10-19T01:59:37.041Z,38.35
2022-10-19T02:00:11.163Z,33.42
2022-10-19T02:00:47.182Z,34.72
2022-10-19T02:01:21.172Z,39.83
2022-10-19T02:01:54.750Z,40.58
2022-10-19T02:02:28.108Z,36.97
2022-10-19T02:03:01.047Z,39.47
2022-10-19T02:03:35.153Z,39.45
2022-10-19T02:04:07.595Z,37.13
2022-10-19T02:04:41.110Z,35.72
2022-10-19T02:05:13.756Z,36.85
2022-10-19T02:05:47.281Z,34.55
2022-10-19T02:06:19.996Z,35.95
2022-10-19T02:06:53.219Z,38.22
2022-10-19T02:07:26.168Z,38.60
2022-10-19T02:08:01.267Z,39.78
2022-10-19T02:08:42.278Z,35.65
2022-10-19T02:09:18.399Z,42.22
2022-10-19T02:09:50.827Z,38.88
2022-10-19T02:10:24.135Z,37.45
2022-10-19T02:10:57.005Z,42.78
2022-10-19T02:11:30.140Z,34.92
2022-10-19T02:12:04.008Z,38.75
2022-10-19T02:12:37.008Z,41.75
2022-10-19T02:13:09.946Z,35.25
2022-10-19T02:13:43.951Z,37.30
2022-10-19T02:14:18.595Z,38.10
2022-10-19T02:14:54.368Z,36.55
2022-10-19T02:15:27.690Z,36.95
2022-10-19T02:16:01.598Z,41.10
2022-10-19T02:16:36.775Z,35.38
2022-10-19T02:17:10.665Z,37.95
2022-10-19T02:17:46.264Z,39.95
2022-10-19T02:18:21.768Z,37.38
2022-10-19T02:18:55.259Z,33.42
2022-10-19T02:19:27.645Z,34.30
2022-10-19T02:20:00.922Z,38.80
2022-10-19T02:20:34.951Z,36.88
2022-10-19T02:21:07.463Z,38.88
2022-10-19T02:21:39.935Z,37.80
2022-10-19T02:22:12.974Z,38.55
2022-10-19T02:22:45.383Z,37.53
2022-10-19T02:23:19.153Z,40.40
2022-10-19T02:23:54.128Z,35.95
2022-10-19T02:24:26.768Z,36.53
2022-10-19T02:24:59.367Z,37.47
2022-10-19T02:25:32.076Z,38.63
2022-10-19T02:26:04.548Z,42.60
2022-10-19T02:26:37.156Z,35.88
2022-10-19T02:27:09.894Z,37.30
2022-10-19T02:27:42.572Z,38.08
2022-10-19T02:28:15.185Z,37.97
2022-10-19T02:28:48.212Z,39.42
2022-10-19T02:29:20.763Z,36.78
2022-10-19T02:29:53.890Z,42.53
2022-10-19T02:30:26.193Z,37.63
2022-10-19T02:30:59.167Z,36.03
2022-10-19T02:31:31.619Z,34.83
2022-10-19T02:32:04.442Z,37.47
2022-10-19T02:32:36.810Z,35.63
2022-10-19T02:33:09.547Z,38.60
2022-10-19T02:33:42.053Z,42.45
2022-10-19T02:34:14.567Z,33.40
2022-10-19T02:34:46.974Z,40.75
2022-10-19T02:35:19.337Z,43.25
2022-10-19T02:35:51.641Z,35.94
2022-10-19T02:36:24.147Z,36.13
2022-10-19T02:36:56.764Z,40.90
2022-10-19T02:37:29.074Z,40.17
2022-10-19T02:38:02.545Z,36.98
2022-10-19T02:38:34.905Z,38.95
2022-10-19T02:39:07.929Z,41.45
2022-10-19T02:39:40.263Z,37.40
2022-10-19T02:40:13.062Z,37.38
2022-10-19T02:40:49.538Z,34.58
2022-10-19T02:41:24.512Z,41.74
2022-10-19T02:42:01.088Z,36.63
2022-10-19T02:42:40.091Z,35.20
2022-10-19T02:43:14.638Z,35.22
2022-10-19T02:43:49.903Z,40.58
2022-10-19T02:44:31.070Z,34.58
2022-10-19T02:45:19.741Z,37.16
2022-10-19T02:46:14.062Z,33.63
2022-10-19T02:46:48.461Z,36.15
2022-10-19T02:47:24.770Z,35.05
2022-10-19T02:48:11.909Z,37.02
2022-10-19T02:48:44.465Z,35.72
2022-10-19T02:49:16.974Z,41.00
2022-10-19T02:49:49.464Z,36.40
2022-10-19T02:50:22.048Z,38.70
2022-10-19T02:50:54.379Z,32.90
2022-10-19T02:51:27.695Z,36.60
2022-10-19T02:52:04.158Z,35.55
2022-10-19T02:52:40.252Z,35.04
2022-10-19T02:53:12.525Z,36.28
2022-10-19T02:53:44.750Z,35.42
2022-10-19T02:54:17.101Z,37.45
2022-10-19T02:54:49.562Z,40.26
2022-10-19T02:55:21.875Z,40.47
2022-10-19T02:55:54.191Z,42.13
2022-10-19T02:56:26.974Z,37.47
2022-10-19T02:56:59.515Z,38.40
2022-10-19T02:57:32.786Z,33.85
2022-10-19T02:58:05.495Z,33.58
2022-10-19T02:58:37.843Z,36.13
2022-10-19T02:59:10.191Z,37.28
2022-10-19T02:59:42.655Z,37.05
2022-10-19T03:00:15.038Z,39.92
2022-10-19T03:00:47.356Z,38.36
2022-10-19T03:01:19.821Z,39.88
2022-10-19T03:01:52.745Z,38.90
2022-10-19T03:02:25.462Z,37.80
2022-10-19T03:02:57.685Z,36.10
2022-10-19T03:03:29.930Z,35.20
2022-10-19T03:04:02.266Z,34.67
2022-10-19T03:04:34.672Z,41.83
2022-10-19T03:05:07.184Z,43.22
2022-10-19T03:05:39.666Z,37.15
2022-10-19T03:06:12.402Z,38.67
2022-10-19T03:06:44.822Z,42.83
2022-10-19T03:07:18.768Z,36.08
2022-10-19T03:07:51.019Z,37.30
2022-10-19T03:08:23.268Z,40.20
2022-10-19T03:08:55.663Z,35.55
2022-10-19T03:09:27.997Z,37.33
2022-10-19T03:10:00.313Z,36.22
2022-10-19T03:10:32.555Z,38.22
2022-10-19T03:11:04.942Z,34.13
2022-10-19T03:11:37.241Z,34.22
2022-10-19T03:12:09.883Z,38.42
2022-10-19T03:12:42.157Z,35.45
2022-10-19T03:13:14.490Z,37.78
2022-10-19T03:14:20.013Z,37.20
2022-10-19T03:14:52.507Z,37.30
2022-10-19T03:15:29.189Z,41.08
2022-10-19T03:16:08.061Z,35.90
2022-10-19T03:16:40.552Z,37.95
2022-10-19T03:17:12.869Z,36.22
2022-10-19T03:17:45.963Z,34.08
2022-10-19T03:18:18.298Z,35.08
2022-10-19T03:18:50.973Z,34.13
2022-10-19T03:19:23.462Z,35.80
2022-10-19T03:19:55.883Z,31.45
2022-10-19T03:20:28.277Z,35.65
2022-10-19T03:21:07.198Z,33.60
2022-10-19T03:21:39.471Z,36.40
2022-10-19T03:22:13.244Z,32.28
2022-10-19T03:22:45.506Z,37.67
2022-10-19T03:23:17.827Z,33.17
2022-10-19T03:23:50.151Z,34.22
2022-10-19T03:24:22.762Z,37.20
2022-10-19T03:24:55.206Z,33.03
2022-10-19T03:25:27.478Z,32.65
2022-10-19T03:25:59.975Z,36.97
2022-10-19T03:26:32.362Z,34.13
2022-10-19T03:27:04.802Z,34.90
2022-10-19T03:27:37.288Z,36.15
2022-10-19T03:28:09.648Z,34.20
2022-10-19T03:28:42.024Z,33.55
2022-10-19T03:29:14.289Z,33.20
2022-10-19T03:29:46.570Z,31.83
2022-10-19T03:30:19.084Z,33.00
2022-10-19T03:30:51.376Z,32.78
2022-10-19T03:31:23.984Z,33.35
2022-10-19T03:31:56.445Z,34.58
2022-10-19T03:32:28.750Z,33.70
2022-10-19T03:33:00.996Z,34.67
2022-10-19T03:33:33.272Z,33.42
2022-10-19T03:34:05.865Z,33.58
2022-10-19T03:34:38.287Z,35.45
2022-10-19T03:35:10.608Z,32.78
2022-10-19T03:35:42.936Z,33.78
2022-10-19T03:36:28.867Z,31.27
2022-10-19T03:37:01.249Z,32.08
2022-10-19T03:37:33.869Z,33.24
2022-10-19T03:38:06.422Z,33.88
2022-10-19T03:38:38.793Z,32.53
2022-10-19T03:39:12.209Z,34.38
2022-10-19T03:39:44.562Z,33.85
2022-10-19T03:40:17.126Z,32.50
2022-10-19T03:40:49.602Z,36.45
2022-10-19T03:41:22.479Z,39.88
2022-10-19T03:41:54.856Z,35.78
2022-10-19T03:42:27.152Z,31.77
2022-10-19T03:42:59.516Z,31.92
2022-10-19T03:43:31.762Z,34.45
2022-10-19T03:44:04.534Z,35.45
2022-10-19T03:44:36.755Z,35.92
2022-10-19T03:45:09.455Z,35.33
2022-10-19T03:45:45.791Z,33.83
2022-10-19T03:46:18.090Z,33.03
2022-10-19T03:46:50.349Z,36.30
2022-10-19T03:47:22.662Z,34.28
2022-10-19T03:47:54.933Z,37.50
2022-10-19T03:48:28.255Z,31.23
2022-10-19T03:49:00.564Z,35.10
2022-10-19T03:49:34.621Z,36.42
2022-10-19T03:50:11.502Z,39.06
2022-10-19T03:50:43.949Z,34.80
2022-10-19T03:51:17.848Z,38.33
2022-10-19T03:51:50.162Z,37.60
2022-10-19T03:52:22.517Z,35.47
2022-10-19T03:52:55.476Z,33.50
2022-10-19T03:53:27.855Z,36.60
2022-10-19T03:54:12.543Z,30.84
2022-10-19T03:54:45.422Z,31.30
2022-10-19T03:55:17.881Z,29.15
2022-10-19T03:55:50.578Z,30.23
2022-10-19T03:56:24.829Z,34.36
2022-10-19T03:56:57.179Z,29.17
2022-10-19T03:57:29.525Z,32.00
2022-10-19T03:58:01.826Z,32.90
2022-10-19T03:58:35.906Z,32.45
2022-10-19T03:59:08.371Z,33.76
2022-10-19T03:59:40.648Z,32.00
2022-10-19T04:00:13.232Z,33.13
2022-10-19T04:00:45.432Z,31.58
2022-10-19T04:01:19.021Z,33.03
2022-10-19T04:01:51.375Z,31.62
2022-10-19T04:02:23.688Z,28.96
2022-10-19T04:02:56.034Z,30.23
2022-10-19T04:03:28.405Z,32.13
2022-10-19T04:04:02.490Z,34.06
2022-10-19T04:04:34.912Z,31.40
2022-10-19T04:05:08.142Z,29.84
2022-10-19T04:05:40.683Z,32.70
2022-10-19T04:06:19.754Z,35.40
2022-10-19T04:06:54.450Z,35.34
2022-10-19T04:07:26.956Z,36.06
2022-10-19T04:07:59.188Z,34.00
2022-10-19T04:08:31.452Z,33.36
2022-10-19T04:09:05.252Z,32.46
2022-10-19T04:09:37.500Z,34.08
2022-10-19T04:10:10.004Z,33.13
2022-10-19T04:10:42.252Z,33.05
2022-10-19T04:11:15.367Z,34.58
2022-10-19T04:11:47.949Z,35.04
2022-10-19T04:12:20.298Z,30.75
2022-10-19T04:12:53.870Z,33.26
2022-10-19T04:13:26.844Z,38.06
2022-10-19T04:13:59.585Z,30.40
2022-10-19T04:14:32.904Z,31.33
2022-10-19T04:15:05.980Z,31.04
2022-10-19T04:15:38.273Z,34.92
2022-10-19T04:16:13.559Z,33.48
2022-10-19T04:16:45.794Z,33.06
2022-10-19T04:17:18.314Z,30.62
2022-10-19T04:17:50.630Z,35.92
2022-10-19T04:18:23.110Z,36.10
2022-10-19T04:18:55.559Z,32.40
2022-10-19T04:19:28.136Z,35.36
2022-10-19T04:20:00.407Z,36.04
2022-10-19T04:20:32.849Z,36.55
2022-10-19T04:21:05.637Z,43.76
2022-10-19T04:21:38.778Z,35.52
2022-10-19T04:22:11.026Z,31.64
2022-10-19T04:22:43.391Z,36.33
2022-10-19T04:23:53.922Z,48.64
2022-10-19T04:24:26.204Z,33.82
2022-10-19T04:24:58.455Z,32.80
2022-10-19T04:25:30.714Z,33.56
2022-10-19T04:26:07.403Z,34.04
2022-10-19T04:26:44.883Z,40.38
2022-10-19T04:27:17.456Z,38.82
2022-10-19T04:27:49.736Z,35.70
2022-10-19T04:28:22.200Z,42.62
2022-10-19T04:28:54.601Z,38.68
2022-10-19T04:29:29.856Z,37.88
2022-10-19T04:30:03.602Z,37.46
2022-10-19T04:30:35.855Z,35.42
2022-10-19T04:31:08.589Z,41.30
2022-10-19T04:31:41.046Z,43.40
2022-10-19T04:32:13.319Z,45.52
2022-10-19T04:32:45.647Z,44.64
2022-10-19T04:33:18.130Z,39.64
2022-10-19T04:33:50.446Z,38.46
2022-10-19T04:34:22.746Z,42.18
2022-10-19T04:34:55.033Z,39.30
2022-10-19T04:35:27.331Z,43.52
2022-10-19T04:36:00.298Z,41.22
2022-10-19T04:36:33.042Z,45.24
2022-10-19T04:37:05.290Z,44.76
2022-10-19T04:37:37.667Z,44.14
2022-10-19T04:38:09.904Z,41.28
2022-10-19T04:38:42.416Z,40.38
2022-10-19T04:39:14.857Z,38.12
2022-10-19T04:39:47.093Z,40.20
2022-10-19T04:40:19.498Z,40.88
2022-10-19T04:40:52.588Z,38.28
2022-10-19T04:41:25.061Z,40.15
2022-10-19T04:41:57.506Z,44.38
2022-10-19T04:42:29.804Z,37.38
2022-10-19T04:43:02.345Z,38.44
2022-10-19T04:43:34.718Z,33.76
2022-10-19T04:44:07.772Z,39.96
2022-10-19T04:44:40.085Z,41.86
2022-10-19T04:45:12.616Z,38.22
2022-10-19T04:45:44.920Z,40.84
2022-10-19T04:46:18.412Z,44.70
2022-10-19T04:46:50.733Z,37.54
2022-10-19T04:47:23.063Z,36.68
2022-10-19T04:47:57.027Z,39.98
2022-10-19T04:48:29.320Z,41.58
2022-10-19T04:49:01.891Z,37.30
2022-10-19T04:49:34.406Z,37.92
2022-10-19T04:50:06.723Z,41.62
2022-10-19T04:50:39.089Z,41.22
2022-10-19T04:51:11.848Z,37.34
2022-10-19T04:51:44.070Z,39.92
2022-10-19T04:52:16.310Z,39.98
2022-10-19T04:52:48.810Z,37.76
2022-10-19T04:53:21.233Z,35.78
2022-10-19T04:53:56.924Z,42.54
2022-10-19T04:54:31.915Z,36.52
2022-10-19T04:55:04.436Z,36.48
2022-10-19T04:55:40.617Z,35.38
2022-10-19T04:56:14.171Z,35.44
2022-10-19T04:56:46.535Z,34.38
2022-10-19T04:57:18.810Z,36.30
2022-10-19T04:57:51.266Z,36.83
2022-10-19T04:58:23.568Z,34.34
2022-10-19T04:58:56.924Z,35.94
2022-10-19T04:59:29.195Z,31.36
2022-10-19T05:00:01.598Z,33.38
2022-10-19T05:00:34.071Z,33.74
2022-10-19T05:01:14.437Z,35.36
2022-10-19T05:01:47.536Z,30.32
2022-10-19T05:02:20.115Z,27.92
2022-10-19T05:02:52.465Z,32.42
2022-10-19T05:03:24.934Z,32.60
2022-10-19T05:03:58.477Z,34.54
2022-10-19T05:04:30.780Z,29.72
2022-10-19T05:05:03.073Z,31.18
2022-10-19T05:05:35.577Z,30.80
2022-10-19T05:06:08.399Z,31.68
2022-10-19T05:06:40.628Z,28.42
2022-10-19T05:07:12.860Z,31.60
2022-10-19T05:07:45.375Z,29.95
2022-10-19T05:08:17.764Z,32.05
2022-10-19T05:08:53.104Z,29.90
2022-10-19T05:09:25.424Z,31.30
2022-10-19T05:09:57.716Z,29.64
2022-10-19T05:10:30.115Z,29.18
2022-10-19T05:11:02.962Z,30.26
2022-10-19T05:11:35.294Z,29.52
2022-10-19T05:12:07.720Z,29.25
2022-10-19T05:12:40.148Z,32.00
2022-10-19T05:13:12.766Z,29.30
2022-10-19T05:13:45.641Z,30.28
2022-10-19T05:14:17.979Z,27.12
2022-10-19T05:14:50.293Z,24.02
2022-10-19T05:15:23.272Z,25.95
2022-10-19T05:15:56.315Z,28.56
2022-10-19T05:16:28.762Z,30.50
2022-10-19T05:17:01.079Z,28.05
2022-10-19T05:17:33.566Z,26.90
2022-10-19T05:18:06.084Z,32.55
2022-10-19T05:18:38.299Z,24.90
2022-10-19T05:19:14.073Z,27.26
2022-10-19T05:19:46.423Z,24.88
2022-10-19T05:20:18.683Z,21.20
2022-10-19T05:20:50.949Z,24.62
2022-10-19T05:21:23.333Z,22.88
2022-10-19T05:21:55.831Z,23.66
2022-10-19T05:22:28.091Z,19.80
2022-10-19T05:23:04.671Z,19.88
2022-10-19T05:23:40.067Z,19.20
2022-10-19T05:24:12.462Z,20.05
2022-10-19T05:24:44.786Z,21.17
2022-10-19T05:25:17.243Z,20.77
2022-10-19T05:25:49.764Z,19.42
2022-10-19T05:26:23.898Z,18.75
2022-10-19T05:26:56.172Z,17.52
2022-10-19T05:27:28.383Z,20.38
2022-10-19T05:28:00.633Z,20.18
2022-10-19T05:28:33.605Z,22.28
2022-10-19T05:29:06.038Z,19.02
2022-10-19T05:29:38.342Z,20.23
2022-10-19T05:30:10.820Z,17.13
2022-10-19T05:30:46.689Z,22.02
2022-10-19T05:31:21.211Z,19.55
2022-10-19T05:31:53.472Z,20.67
2022-10-19T05:32:27.063Z,19.75
2022-10-19T05:32:59.401Z,18.85
2022-10-19T05:33:31.713Z,18.85
2022-10-19T05:34:04.311Z,20.10
2022-10-19T05:34:36.871Z,22.40
2022-10-19T05:35:09.306Z,21.90
2022-10-19T05:35:41.571Z,19.42
2022-10-19T05:36:14.085Z,18.83
2022-10-19T05:36:46.432Z,17.08
2022-10-19T05:37:18.703Z,19.92
2022-10-19T05:37:55.447Z,21.20
2022-10-19T05:38:29.564Z,18.26
2022-10-19T05:39:22.242Z,19.17
2022-10-19T05:39:54.900Z,19.38
2022-10-19T05:40:27.779Z,22.05
2022-10-19T05:41:00.087Z,18.60
2022-10-19T05:41:32.408Z,20.85
2022-10-19T05:42:04.959Z,18.23
2022-10-19T05:42:37.235Z,19.67
2022-10-19T05:43:09.676Z,17.13
2022-10-19T05:43:42.319Z,17.88
2022-10-19T05:44:16.069Z,17.67
2022-10-19T05:44:48.525Z,19.54
2022-10-19T05:45:20.901Z,18.98
2022-10-19T05:45:53.219Z,18.65
2022-10-19T05:46:26.351Z,18.17
2022-10-19T05:46:58.783Z,18.63
2022-10-19T05:47:32.530Z,17.85
2022-10-19T05:48:05.124Z,17.27
2022-10-19T05:48:38.165Z,17.58
2022-10-19T05:49:11.479Z,18.27
2022-10-19T05:49:43.695Z,19.58
2022-10-19T05:50:15.963Z,18.75
2022-10-19T05:50:54.542Z,17.85
2022-10-19T05:51:27.896Z,16.08
2022-10-19T05:52:00.187Z,21.17
2022-10-19T05:52:32.476Z,16.83
2022-10-19T05:53:04.875Z,17.27
2022-10-19T05:54:14.765Z,18.60
2022-10-19T05:54:47.070Z,16.85
2022-10-19T05:55:19.329Z,17.80
2022-10-19T05:55:51.564Z,18.20
2022-10-19T05:56:28.206Z,19.23
2022-10-19T05:57:01.246Z,17.92
2022-10-19T05:57:33.772Z,17.30
2022-10-19T05:58:06.258Z,14.90
2022-10-19T05:58:38.646Z,15.35
2022-10-19T05:59:13.898Z,17.73
2022-10-19T05:59:46.222Z,15.93
2022-10-19T06:00:18.493Z,15.80
2022-10-19T06:00:51.698Z,16.27
2022-10-19T06:01:24.362Z,17.35
2022-10-19T06:01:56.973Z,16.95
2022-10-19T06:02:29.302Z,15.43
2022-10-19T06:03:01.748Z,16.08
2022-10-19T06:03:34.023Z,14.98
2022-10-19T06:04:07.558Z,15.10
2022-10-19T06:04:39.939Z,18.77
2022-10-19T06:05:12.226Z,16.00
2022-10-19T06:05:44.568Z,15.65
2022-10-19T06:06:16.788Z,23.65
2022-10-19T06:06:49.149Z,15.73
2022-10-19T06:07:21.438Z,17.58
2022-10-19T06:07:53.796Z,20.67
2022-10-19T06:08:26.165Z,21.98
2022-10-19T06:08:59.396Z,23.27
2022-10-19T06:09:36.166Z,18.45
2022-10-19T06:10:10.441Z,17.73
2022-10-19T06:10:43.188Z,17.86
2022-10-19T06:11:16.685Z,17.25
2022-10-19T06:11:49.022Z,19.05
2022-10-19T06:12:24.329Z,18.85
2022-10-19T06:12:57.482Z,18.75
2022-10-19T06:13:29.950Z,18.67
2022-10-19T06:14:04.292Z,21.50
2022-10-19T06:14:36.755Z,20.23
2022-10-19T06:15:09.457Z,16.92
2022-10-19T06:15:41.842Z,20.55
2022-10-19T06:16:15.170Z,19.77
2022-10-19T06:16:47.427Z,19.80
2022-10-19T06:17:19.741Z,18.45
2022-10-19T06:17:52.134Z,21.02
2022-10-19T06:18:27.262Z,18.35
2022-10-19T06:18:59.882Z,18.08
2022-10-19T06:19:32.339Z,19.52
2022-10-19T06:20:04.892Z,18.77
2022-10-19T06:20:41.322Z,16.40
2022-10-19T06:21:16.054Z,20.08
2022-10-19T06:21:48.363Z,17.73
2022-10-19T06:22:21.322Z,19.83
2022-10-19T06:22:53.604Z,18.17
2022-10-19T06:23:26.002Z,18.45
2022-10-19T06:23:59.689Z,18.15
2022-10-19T06:24:31.995Z,18.02
2022-10-19T06:25:04.422Z,16.02
2022-10-19T06:25:36.728Z,15.73
2022-10-19T06:26:10.219Z,17.02
2022-10-19T06:26:42.462Z,16.10
2022-10-19T06:27:14.916Z,17.17
2022-10-19T06:27:47.661Z,15.93
2022-10-19T06:28:19.970Z,15.35
2022-10-19T06:28:54.828Z,17.27
2022-10-19T06:29:27.162Z,15.50
2022-10-19T06:29:59.502Z,16.80
2022-10-19T06:30:31.757Z,14.93
2022-10-19T06:31:07.153Z,16.17
2022-10-19T06:31:41.595Z,17.10
2022-10-19T06:32:13.820Z,15.57
2022-10-19T06:32:46.216Z,18.20
2022-10-19T06:33:18.603Z,19.48
2022-10-19T06:33:50.914Z,16.63
2022-10-19T06:34:23.412Z,16.08
2022-10-19T06:34:56.573Z,16.00
2022-10-19T06:35:29.074Z,15.82
2022-10-19T06:36:11.662Z,14.48
2022-10-19T06:36:43.912Z,13.93
2022-10-19T06:37:16.434Z,18.05
2022-10-19T06:37:48.706Z,15.70
2022-10-19T06:38:21.194Z,15.05
2022-10-19T06:38:53.464Z,15.45
2022-10-19T06:39:25.713Z,19.63
2022-10-19T06:39:58.070Z,14.88
2022-10-19T06:40:32.708Z,14.93
2022-10-19T06:41:05.295Z,15.95
2022-10-19T06:41:37.564Z,15.90
2022-10-19T06:42:30.458Z,12.38
2022-10-19T06:43:02.715Z,12.80
2022-10-19T06:43:35.568Z,12.50
2022-10-19T06:44:08.809Z,12.27
2022-10-19T06:44:41.051Z,12.18
2022-10-19T06:45:13.580Z,13.07
2022-10-19T06:45:46.020Z,13.35
2022-10-19T06:46:20.825Z,16.08
2022-10-19T06:46:53.170Z,10.68
2022-10-19T06:47:31.455Z,13.50
2022-10-19T06:48:06.789Z,10.45
2022-10-19T06:48:40.234Z,11.25
2022-10-19T06:49:13.288Z,14.27
2022-10-19T06:49:45.579Z,15.95
2022-10-19T06:50:18.054Z,12.20
2022-10-19T06:50:59.840Z,13.52
2022-10-19T06:51:35.245Z,12.15
2022-10-19T06:52:07.871Z,12.27
2022-10-19T06:52:41.054Z,12.95
2022-10-19T06:53:13.518Z,12.90
2022-10-19T06:53:45.826Z,12.30
2022-10-19T06:54:18.110Z,18.33
2022-10-19T06:54:51.256Z,11.10
2022-10-19T06:55:23.585Z,12.18
2022-10-19T06:55:59.433Z,12.85
2022-10-19T06:56:31.739Z,11.90
2022-10-19T06:57:04.078Z,15.60
2022-10-19T06:57:36.645Z,11.98
2022-10-19T06:58:09.384Z,13.27
2022-10-19T06:58:41.726Z,13.40
2022-10-19T06:59:14.935Z,13.15
2022-10-19T06:59:50.138Z,11.57
2022-10-19T07:00:25.482Z,13.70
2022-10-19T07:00:58.512Z,11.52
2022-10-19T07:01:30.826Z,11.73
2022-10-19T07:02:03.153Z,10.43
2022-10-19T07:02:35.913Z,11.30
2022-10-19T07:03:08.227Z,12.90
2022-10-19T07:03:41.250Z,12.45
2022-10-19T07:04:13.501Z,14.60
2022-10-19T07:04:45.757Z,10.13
2022-10-19T07:05:18.190Z,11.30
2022-10-19T07:06:00.491Z,11.52
2022-10-19T07:06:32.926Z,9.45
2022-10-19T07:07:05.508Z,11.50
2022-10-19T07:07:38.059Z,13.40
2022-10-19T07:08:10.831Z,13.55
2022-10-19T07:08:43.447Z,11.52
2022-10-19T07:09:15.786Z,10.75
2022-10-19T07:09:48.552Z,12.98
2022-10-19T07:10:20.897Z,11.00
2022-10-19T07:10:54.082Z,10.63
2022-10-19T07:11:26.454Z,10.00
2022-10-19T07:11:58.824Z,8.98
2022-10-19T07:12:31.125Z,11.98
2022-10-19T07:13:03.830Z,12.00
2022-10-19T07:13:36.154Z,11.30
2022-10-19T07:14:09.268Z,12.98
2022-10-19T07:14:41.510Z,11.15
2022-10-19T07:15:13.990Z,12.13
2022-10-19T07:15:46.676Z,11.13
2022-10-19T07:16:21.172Z,9.50
2022-10-19T07:16:54.439Z,12.50
2022-10-19T07:17:26.762Z,11.60
2022-10-19T07:17:58.991Z,11.35
2022-10-19T07:18:31.692Z,11.15
2022-10-19T07:19:04.234Z,12.27
2022-10-19T07:19:36.629Z,12.35